Time;durP1;ratioP1;P1;durP2;ratioP2;P2;SDS_P1;SDS_P2;PMS_P1;PMS_P2;Temp;Humidity;BMP_temperature;BMP_pressure;BME280_temperature;BME280_humidity;BME280_pressure;Samples;Min_cycle;Max_cycle;Signal;HPM_P1;HPM_P2
2021/09/16 00:02:20;;;;;;;;;12.25;10.50;;;;;17.86;79.53;101324.34;4979801;28;46895;-80
2021/09/16 00:04:46;;;;;;;;;12.00;11.00;;;;;17.84;79.38;101325.34;4973737;28;45720;-80
2021/09/16 00:07:11;;;;;;;;;11.50;11.25;;;;;17.82;79.39;101331.88;4980076;28;49610;-81
2021/09/16 00:09:36;;;;;;;;;14.00;12.00;;;;;17.77;79.10;101331.56;4980139;28;56185;-80
2021/09/16 00:12:02;;;;;;;;;13.00;12.50;;;;;17.73;79.67;101344.47;4970877;28;45397;-81
2021/09/16 00:14:27;;;;;;;;;11.75;11.75;;;;;17.71;79.96;101348.34;4972543;28;49733;-80
2021/09/16 00:16:53;;;;;;;;;14.50;12.00;;;;;17.69;80.02;101343.16;4984282;28;45545;-80
2021/09/16 00:19:18;;;;;;;;;12.00;11.75;;;;;17.68;80.47;101346.00;4992905;28;45727;-80
2021/09/16 00:21:43;;;;;;;;;15.00;11.75;;;;;17.65;80.55;101338.38;4984495;28;45764;-80
2021/09/16 00:24:08;;;;;;;;;11.75;10.00;;;;;17.63;81.53;101333.22;4970601;28;45710;-80
2021/09/16 00:26:34;;;;;;;;;12.75;10.50;;;;;17.61;81.40;101335.25;4974474;28;47528;-80
2021/09/16 00:28:59;;;;;;;;;13.50;12.50;;;;;17.57;81.58;101336.59;4952641;28;45677;-80
2021/09/16 00:31:25;;;;;;;;;7.25;7.00;;;;;17.54;81.43;101339.63;4986579;28;49275;-79
2021/09/16 00:33:50;;;;;;;;;11.00;11.00;;;;;17.50;81.71;101343.66;4983459;28;45553;-80
2021/09/16 00:36:16;;;;;;;;;9.50;9.25;;;;;17.46;82.08;101350.38;4978873;28;45610;-81
2021/09/16 00:38:41;;;;;;;;;13.25;11.00;;;;;17.41;81.86;101350.94;4977573;28;45550;-80
2021/09/16 00:41:07;;;;;;;;;14.00;11.75;;;;;17.36;82.02;101353.31;4973018;28;45997;-80
2021/09/16 00:43:32;;;;;;;;;11.00;11.00;;;;;17.33;82.40;101356.31;4977832;28;45661;-80
2021/09/16 00:46:06;;;;;;;;;14.00;12.50;;;;;17.29;82.19;101368.41;4988623;28;45886;-79
2021/09/16 00:48:32;;;;;;;;;13.25;12.00;;;;;17.24;82.56;101360.91;4985882;28;45645;-80
2021/09/16 00:50:57;;;;;;;;;11.25;11.25;;;;;17.25;82.89;101353.72;4971901;28;45453;-79
2021/09/16 00:53:27;;;;;;;;;16.00;13.00;;;;;17.22;82.62;101352.25;4986727;28;45549;-80
2021/09/16 00:55:54;;;;;;;;;13.00;13.00;;;;;17.22;83.02;101354.91;4966130;28;46693;-79
2021/09/16 00:58:21;;;;;;;;;14.75;12.50;;;;;17.24;83.50;101360.09;4976232;28;49373;-80
2021/09/16 01:00:46;;;;;;;;;13.25;12.25;;;;;17.28;83.31;101353.38;4978079;28;45546;-80
2021/09/16 01:03:12;;;;;;;;;12.00;11.25;;;;;17.31;83.93;101353.84;4969632;28;45821;-80
2021/09/16 01:05:38;;;;;;;;;12.75;11.50;;;;;17.34;84.25;101353.50;4974815;28;46145;-80
2021/09/16 01:08:05;;;;;;;;;11.50;11.00;;;;;17.39;84.01;101355.63;4968462;28;45843;-81
2021/09/16 01:10:30;;;;;;;;;15.00;12.50;;;;;17.41;83.54;101357.09;4975782;28;45584;-80
2021/09/16 01:12:56;;;;;;;;;12.75;11.75;;;;;17.44;83.92;101355.09;4972110;28;45428;-80
2021/09/16 01:15:22;;;;;;;;;11.50;11.00;;;;;17.45;83.51;101367.44;4981744;28;46299;-80
2021/09/16 01:17:47;;;;;;;;;11.25;10.00;;;;;17.45;83.12;101362.09;4983050;28;45563;-81
2021/09/16 01:20:13;;;;;;;;;11.25;11.25;;;;;17.41;82.70;101373.16;4982803;28;45679;-80
2021/09/16 01:22:39;;;;;;;;;12.50;12.00;;;;;17.39;83.05;101369.81;4985537;28;45845;-81
2021/09/16 01:25:05;;;;;;;;;14.00;13.25;;;;;17.35;82.87;101373.84;4977258;28;46922;-80
2021/09/16 01:27:31;;;;;;;;;13.50;11.50;;;;;17.31;82.98;101369.88;4977235;28;45499;-81
2021/09/16 01:29:56;;;;;;;;;13.25;11.75;;;;;17.29;83.27;101384.44;4978523;28;45773;-80
2021/09/16 01:32:22;;;;;;;;;14.75;13.25;;;;;17.24;83.00;101381.47;4986575;28;45769;-80
2021/09/16 01:34:47;;;;;;;;;12.50;9.50;;;;;17.20;83.50;101375.63;4971008;28;51168;-81
2021/09/16 01:37:13;;;;;;;;;13.25;12.00;;;;;17.15;82.98;101375.31;4978986;28;45525;-80
2021/09/16 01:39:39;;;;;;;;;12.75;12.75;;;;;17.14;83.58;101376.34;4978339;28;45505;-80
2021/09/16 01:42:05;;;;;;;;;15.00;12.75;;;;;17.13;83.45;101374.66;4972006;28;45522;-80
2021/09/16 01:44:33;;;;;;;;;13.75;12.75;;;;;17.12;83.55;101383.69;4972224;28;45603;-80
2021/09/16 01:46:59;;;;;;;;;14.50;14.25;;;;;17.11;83.68;101382.03;4978148;28;45704;-80
2021/09/16 01:49:24;;;;;;;;;14.75;12.00;;;;;17.13;83.98;101396.03;4981434;28;45944;-81
2021/09/16 01:51:50;;;;;;;;;13.50;12.75;;;;;17.17;83.61;101394.69;4974557;28;45371;-81
2021/09/16 01:54:15;;;;;;;;;14.75;14.00;;;;;17.20;83.80;101392.47;4979096;28;46901;-80
2021/09/16 01:56:41;;;;;;;;;14.25;11.50;;;;;17.25;83.80;101394.63;4972163;28;45786;-80
2021/09/16 01:59:06;;;;;;;;;15.75;12.75;;;;;17.30;83.41;101392.25;4977240;28;45692;-80
2021/09/16 02:01:32;;;;;;;;;13.00;12.50;;;;;17.33;83.51;101397.25;4972151;28;45652;-80
2021/09/16 02:03:57;;;;;;;;;11.00;10.25;;;;;17.35;83.46;101405.06;4980619;28;46399;-80
2021/09/16 02:06:22;;;;;;;;;12.50;12.00;;;;;17.37;83.22;101403.88;4982141;28;45390;-80
2021/09/16 02:08:48;;;;;;;;;16.25;13.25;;;;;17.39;83.52;101401.88;4971454;28;45695;-81
2021/09/16 02:11:14;;;;;;;;;14.25;11.25;;;;;17.42;83.26;101403.34;4972719;28;46180;-81
2021/09/16 02:13:39;;;;;;;;;11.75;11.00;;;;;17.45;82.67;101396.81;4973947;28;45497;-81
2021/09/16 02:16:04;;;;;;;;;12.00;11.00;;;;;17.48;82.43;101397.31;4987803;28;45445;-80
2021/09/16 02:18:30;;;;;;;;;13.00;12.00;;;;;17.50;82.52;101407.81;4986030;28;45466;-81
2021/09/16 02:20:56;;;;;;;;;13.25;12.25;;;;;17.53;81.83;101407.44;4976562;28;45489;-80
2021/09/16 02:23:21;;;;;;;;;15.00;14.00;;;;;17.54;82.10;101409.13;4972894;28;45551;-80
2021/09/16 02:25:46;;;;;;;;;13.25;12.25;;;;;17.56;81.81;101409.78;4962316;28;45551;-81
2021/09/16 02:28:12;;;;;;;;;14.50;13.25;;;;;17.57;81.76;101408.75;4985180;28;45514;-80
2021/09/16 02:30:38;;;;;;;;;13.50;13.50;;;;;17.57;80.68;101414.09;4982295;28;45816;-80
2021/09/16 02:33:04;;;;;;;;;18.75;12.50;;;;;17.56;80.45;101415.13;4984981;28;45504;-80
2021/09/16 02:35:31;;;;;;;;;16.50;13.75;;;;;17.57;81.37;101408.75;4975537;28;45562;-81
2021/09/16 02:37:56;;;;;;;;;13.50;13.00;;;;;17.57;80.18;101408.75;4973947;28;45515;-81
2021/09/16 02:40:22;;;;;;;;;14.50;13.00;;;;;17.58;80.80;101408.59;4974499;28;45520;-79
2021/09/16 02:42:47;;;;;;;;;15.75;12.75;;;;;17.59;81.29;101412.09;4969626;28;46115;-80
2021/09/16 02:45:13;;;;;;;;;15.00;13.50;;;;;17.59;80.84;101412.09;4976449;28;45918;-81
2021/09/16 02:47:38;;;;;;;;;14.25;13.50;;;;;17.59;80.60;101406.75;4971581;28;45867;-81
2021/09/16 02:50:04;;;;;;;;;14.00;12.50;;;;;17.59;80.85;101412.91;4970224;28;45423;-80
2021/09/16 02:52:29;;;;;;;;;14.75;12.75;;;;;17.61;80.59;101415.41;4976657;28;46209;-80
2021/09/16 02:54:55;;;;;;;;;14.00;12.25;;;;;17.59;81.03;101410.25;4979093;28;45512;-78
2021/09/16 02:57:20;;;;;;;;;14.25;13.25;;;;;17.60;80.39;101413.75;4975544;28;46042;-80
2021/09/16 02:59:45;;;;;;;;;14.50;14.50;;;;;17.61;80.55;101420.75;4975413;28;45632;-80
2021/09/16 03:02:11;;;;;;;;;14.25;13.50;;;;;17.63;81.55;101424.09;4982362;28;49448;-80
2021/09/16 03:04:36;;;;;;;;;12.25;10.25;;;;;17.63;81.02;101424.91;4986167;28;49240;-80
2021/09/16 03:07:02;;;;;;;;;15.00;14.50;;;;;17.65;80.28;101422.06;4985777;28;45575;-80
2021/09/16 03:09:27;;;;;;;;;12.25;10.75;;;;;17.65;79.34;101421.22;4973745;28;45573;-80
2021/09/16 03:11:52;;;;;;;;;13.50;13.50;;;;;17.66;79.62;101430.94;4974693;28;48280;-80
2021/09/16 03:14:18;;;;;;;;;13.50;13.00;;;;;17.66;80.20;101429.09;4973774;28;46432;-80
2021/09/16 03:16:43;;;;;;;;;13.00;12.00;;;;;17.67;80.94;101437.91;4976616;28;49843;-81
2021/09/16 03:19:09;;;;;;;;;13.25;11.00;;;;;17.66;80.30;101434.44;4991508;28;45446;-79
2021/09/16 03:21:34;;;;;;;;;10.00;9.00;;;;;17.65;80.39;101437.25;4979156;28;47320;-79
2021/09/16 03:24:00;;;;;;;;;13.00;11.00;;;;;17.65;79.70;101435.41;4976523;28;45768;-78
2021/09/16 03:26:25;;;;;;;;;16.00;13.50;;;;;17.65;79.60;101430.06;4978371;28;45983;-81
2021/09/16 03:28:51;;;;;;;;;13.00;10.75;;;;;17.65;80.11;101432.75;4971955;28;45648;-81
2021/09/16 03:31:16;;;;;;;;;16.00;12.00;;;;;17.64;79.32;101433.75;4977504;28;45434;-81
2021/09/16 03:33:42;;;;;;;;;13.00;12.50;;;;;17.64;79.13;101439.13;4976898;28;45469;-80
2021/09/16 03:36:07;;;;;;;;;12.25;11.25;;;;;17.62;78.99;101439.28;4973327;28;45445;-79
2021/09/16 03:38:32;;;;;;;;;14.50;11.00;;;;;17.62;78.66;101435.78;4972986;28;45538;-80
2021/09/16 03:40:58;;;;;;;;;13.25;12.00;;;;;17.62;78.69;101443.81;4972195;28;46060;-80
2021/09/16 03:43:24;;;;;;;;;13.50;13.00;;;;;17.61;79.14;101447.50;4972705;28;45649;-80
2021/09/16 03:45:49;;;;;;;;;17.00;12.75;;;;;17.61;78.24;101442.16;4972400;28;45532;-80
2021/09/16 03:48:15;;;;;;;;;11.75;10.75;;;;;17.57;79.06;101438.97;4976475;28;45393;-80
2021/09/16 03:50:40;;;;;;;;;12.75;12.00;;;;;17.57;78.68;101441.66;4984210;28;47155;-81
2021/09/16 03:53:06;;;;;;;;;13.25;11.50;;;;;17.57;78.56;101440.84;4984242;28;45969;-81
2021/09/16 03:55:32;;;;;;;;;13.00;10.50;;;;;17.57;77.81;101443.50;4981048;28;45858;-80
2021/09/16 03:57:57;;;;;;;;;13.00;13.00;;;;;17.55;78.51;101442.84;4990133;28;45473;-80
2021/09/16 04:00:23;;;;;;;;;11.25;10.50;;;;;17.52;78.66;101438.69;4984859;28;46176;-81
2021/09/16 04:02:48;;;;;;;;;10.75;10.25;;;;;17.52;78.85;101437.88;4963595;28;45557;-81
2021/09/16 04:05:13;;;;;;;;;13.25;12.25;;;;;17.51;78.31;101441.56;4978699;28;45624;-80
2021/09/16 04:07:39;;;;;;;;;11.25;10.25;;;;;17.49;78.35;101447.06;4986399;28;45452;-81
2021/09/16 04:10:06;;;;;;;;;13.25;13.25;;;;;17.48;78.13;101448.09;4983843;28;46567;-80
2021/09/16 04:12:32;;;;;;;;;13.50;11.50;;;;;17.47;78.97;101456.28;4981238;28;45480;-81
2021/09/16 04:14:58;;;;;;;;;14.25;12.25;;;;;17.47;78.53;101459.78;4986103;28;45568;-80
2021/09/16 04:17:23;;;;;;;;;12.00;11.50;;;;;17.45;78.80;101456.44;4976007;28;53755;-79
2021/09/16 04:19:49;;;;;;;;;13.00;13.00;;;;;17.44;78.59;101451.28;4981439;28;47002;-80
2021/09/16 04:22:14;;;;;;;;;13.50;13.00;;;;;17.41;78.88;101450.63;4985784;28;45400;-81
2021/09/16 04:24:39;;;;;;;;;15.00;11.75;;;;;17.40;78.28;101459.63;4974144;28;45860;-81
2021/09/16 04:27:05;;;;;;;;;12.75;12.75;;;;;17.39;78.84;101455.31;4975436;28;45641;-80
2021/09/16 04:29:31;;;;;;;;;13.25;12.00;;;;;17.37;78.40;101449.31;4955780;28;48109;-80
2021/09/16 04:31:57;;;;;;;;;13.50;11.25;;;;;17.35;78.05;101445.16;4974245;28;45532;-81
2021/09/16 04:34:22;;;;;;;;;15.25;12.25;;;;;17.33;77.96;101450.69;4975574;28;45535;-80
2021/09/16 04:36:48;;;;;;;;;10.75;9.00;;;;;17.31;78.20;101446.50;4974447;28;45925;-81
2021/09/16 04:39:14;;;;;;;;;11.25;11.00;;;;;17.30;78.28;101455.53;4961599;28;52349;-80
2021/09/16 04:41:39;;;;;;;;;13.50;11.50;;;;;17.27;78.92;101456.72;4968345;28;45561;-81
2021/09/16 04:44:05;;;;;;;;;16.50;13.75;;;;;17.26;78.83;101456.88;4975247;28;45717;-80
2021/09/16 04:46:31;;;;;;;;;14.00;12.50;;;;;17.24;78.98;101458.94;4974304;28;45819;-81
2021/09/16 04:48:56;;;;;;;;;15.00;12.50;;;;;17.23;79.45;101459.91;4982601;28;47027;-80
2021/09/16 04:51:21;;;;;;;;;14.25;12.00;;;;;17.21;79.00;101454.78;4972495;28;45781;-80
2021/09/16 04:53:47;;;;;;;;;13.75;12.00;;;;;17.19;79.44;101464.78;4978621;28;45549;-80
2021/09/16 04:56:12;;;;;;;;;15.25;11.50;;;;;17.18;80.51;101463.09;4969340;28;45705;-80
2021/09/16 04:58:38;;;;;;;;;17.00;14.75;;;;;17.17;78.54;101462.28;4984297;28;46414;-80
2021/09/16 05:01:03;;;;;;;;;17.00;12.25;;;;;17.16;79.64;101465.97;4985881;28;45688;-81
2021/09/16 05:03:28;;;;;;;;;13.00;13.00;;;;;17.17;79.03;101466.81;4974623;28;45583;-80
2021/09/16 05:05:54;;;;;;;;;16.25;12.00;;;;;17.16;79.63;101468.66;4976247;28;50145;-79
2021/09/16 05:08:19;;;;;;;;;17.00;16.00;;;;;17.16;80.34;101478.47;4972961;28;46204;-80
2021/09/16 05:10:45;;;;;;;;;15.00;14.00;;;;;17.15;79.65;101469.63;4971262;28;46474;-81
2021/09/16 05:13:10;;;;;;;;;11.00;10.25;;;;;17.14;79.77;101472.50;4986468;28;45536;-80
2021/09/16 05:15:36;;;;;;;;;10.25;9.25;;;;;17.16;79.75;101475.81;4975753;28;45536;-81
2021/09/16 05:18:02;;;;;;;;;17.25;12.75;;;;;17.15;78.92;101468.81;4957558;28;46590;-79
2021/09/16 05:20:27;;;;;;;;;14.00;13.50;;;;;17.13;79.29;101466.31;4983402;28;45741;-84
2021/09/16 05:22:52;;;;;;;;;14.75;12.75;;;;;17.13;79.48;101471.63;4973452;28;45869;-85
2021/09/16 05:25:18;;;;;;;;;16.50;13.00;;;;;17.13;78.74;101476.16;4989750;28;46008;-84
2021/09/16 05:27:43;;;;;;;;;14.00;12.00;;;;;17.12;78.87;101475.34;4980522;28;46996;-84
2021/09/16 05:30:09;;;;;;;;;16.50;13.50;;;;;17.14;79.67;101475.16;4976944;28;45630;-87
2021/09/16 05:32:35;;;;;;;;;15.50;12.25;;;;;17.13;79.19;101476.16;4980125;28;45529;-82
2021/09/16 05:35:01;;;;;;;;;12.50;11.25;;;;;17.10;78.75;101476.50;4976892;28;45596;-83
2021/09/16 05:37:27;;;;;;;;;13.75;12.00;;;;;17.07;79.09;101474.19;4992995;28;45490;-84
2021/09/16 05:39:53;;;;;;;;;13.25;12.00;;;;;17.06;79.28;101472.50;4980027;28;45571;-79
2021/09/16 05:42:19;;;;;;;;;11.25;10.25;;;;;17.06;78.92;101480.53;4980449;28;47256;-78
2021/09/16 05:44:45;;;;;;;;;11.75;11.00;;;;;17.06;79.04;101483.19;4987892;28;45561;-75
2021/09/16 05:47:10;;;;;;;;;14.00;11.75;;;;;17.07;78.59;101488.38;4984100;28;46887;-77
2021/09/16 05:49:36;;;;;;;;;12.50;11.50;;;;;17.08;78.73;101478.53;4984590;28;45626;-78
2021/09/16 05:52:02;;;;;;;;;15.75;12.25;;;;;17.12;79.55;101488.69;4987247;28;45666;-76
2021/09/16 05:54:27;;;;;;;;;13.50;11.25;;;;;17.14;78.74;101492.03;4988026;28;45416;-77
2021/09/16 05:56:53;;;;;;;;;12.00;10.25;;;;;17.18;78.99;101484.47;4988388;28;47422;-77
2021/09/16 05:59:18;;;;;;;;;13.00;12.00;;;;;17.22;80.16;101490.31;4986233;28;45561;-78
2021/09/16 06:01:43;;;;;;;;;12.50;11.50;;;;;17.27;79.51;101499.47;4986702;28;45450;-78
2021/09/16 06:04:09;;;;;;;;;12.75;11.25;;;;;17.33;78.71;101498.78;4987825;28;45761;-80
2021/09/16 06:06:34;;;;;;;;;14.50;13.00;;;;;17.40;79.21;101499.72;4986447;28;52465;-80
2021/09/16 06:09:00;;;;;;;;;13.75;12.00;;;;;17.42;77.63;101508.41;4984515;28;45481;-78
2021/09/16 06:11:25;;;;;;;;;16.50;13.50;;;;;17.43;77.44;101506.56;4981672;28;57030;-78
2021/09/16 06:13:54;;;;;;;;;11.50;11.50;;;;;17.50;77.81;101512.03;4978998;28;45442;-78
2021/09/16 06:16:21;;;;;;;;;13.75;12.25;;;;;17.57;76.74;101515.66;4983286;28;46077;-84
2021/09/16 06:18:46;;;;;;;;;12.25;11.00;;;;;17.63;77.04;101514.97;4966891;28;45701;-80
2021/09/16 06:21:12;;;;;;;;;13.50;11.50;;;;;17.68;76.00;101523.28;4979089;28;45759;-80
2021/09/16 06:23:37;;;;;;;;;12.00;10.75;;;;;17.70;76.09;101526.59;4981732;28;45665;-80
2021/09/16 06:26:02;;;;;;;;;13.50;13.00;;;;;17.72;76.28;101521.91;4979691;28;46155;-80
2021/09/16 06:28:28;;;;;;;;;14.50;12.50;;;;;17.78;76.64;101531.91;4962749;28;46004;-81
2021/09/16 06:30:53;;;;;;;;;14.25;12.25;;;;;17.89;75.60;101535.22;4979410;28;45894;-80
2021/09/16 06:33:19;;;;;;;;;14.00;12.25;;;;;17.94;75.73;101532.84;4983825;28;45597;-80
2021/09/16 06:35:44;;;;;;;;;14.25;13.50;;;;;17.99;74.93;101538.47;4977426;28;45735;-79
2021/09/16 06:38:10;;;;;;;;;14.00;13.00;;;;;18.00;74.99;101540.13;4992196;28;45726;-79
2021/09/16 06:40:35;;;;;;;;;12.00;10.75;;;;;18.13;75.07;101542.22;4973090;28;49207;-80
2021/09/16 06:43:00;;;;;;;;;11.00;10.00;;;;;18.34;74.27;101546.88;4979434;28;45542;-80
2021/09/16 06:45:26;;;;;;;;;14.00;10.00;;;;;18.61;73.45;101553.50;4985094;28;47479;-80
2021/09/16 06:47:51;;;;;;;;;11.25;10.50;;;;;19.27;71.54;101541.06;4969944;28;45599;-79
2021/09/16 06:50:17;;;;;;;;;11.00;8.75;;;;;20.49;69.18;101547.44;4970065;28;46273;-79
2021/09/16 06:52:42;;;;;;;;;13.25;11.00;;;;;21.40;66.47;101547.41;4974238;28;45434;-77
2021/09/16 06:55:08;;;;;;;;;12.00;10.50;;;;;21.11;65.60;101541.25;4972753;28;45879;-79
2021/09/16 06:57:34;;;;;;;;;10.50;10.00;;;;;20.91;67.00;101543.00;4982459;28;45368;-79
2021/09/16 06:59:59;;;;;;;;;17.75;12.50;;;;;20.81;64.00;101538.00;4986263;28;45682;-79
2021/09/16 07:02:25;;;;;;;;;13.25;10.50;;;;;20.91;65.98;101538.47;4974020;28;53283;-79
2021/09/16 07:04:51;;;;;;;;;10.00;9.75;;;;;20.65;65.46;101538.28;4958186;28;46094;-79
2021/09/16 07:07:17;;;;;;;;;13.50;11.50;;;;;20.41;67.00;101538.50;4987853;28;45726;-81
2021/09/16 07:09:43;;;;;;;;;11.00;9.75;;;;;20.31;65.95;101540.72;4984463;28;45436;-79
2021/09/16 07:12:08;;;;;;;;;13.50;10.25;;;;;20.25;66.02;101536.13;4988184;28;52691;-78
2021/09/16 07:14:34;;;;;;;;;11.00;11.00;;;;;20.50;64.18;101541.03;4981185;28;45738;-78
2021/09/16 07:16:59;;;;;;;;;10.00;8.50;;;;;20.71;62.57;101543.72;4984374;28;45557;-82
2021/09/16 07:19:26;;;;;;;;;14.00;12.50;;;;;20.74;64.18;101537.13;4987132;28;46130;-79
2021/09/16 07:21:53;;;;;;;;;11.25;10.25;;;;;20.89;62.89;101545.88;4984117;28;50990;-85
2021/09/16 07:24:19;;;;;;;;;9.75;9.50;;;;;21.46;59.93;101538.53;4980326;28;45911;-80
2021/09/16 07:26:54;;;;;;;;;14.00;9.75;;;;;22.42;62.38;101542.81;4986464;28;45514;-84
2021/09/16 07:29:21;;;;;;;;;11.75;8.50;;;;;25.40;57.09;101541.91;4967785;28;45473;-83
2021/09/16 07:31:48;;;;;;;;;9.25;9.25;;;;;28.15;46.11;101531.97;4981119;28;48020;-83
2021/09/16 07:34:15;;;;;;;;;10.00;8.25;;;;;30.33;50.25;101544.06;4983733;28;45602;-82
2021/09/16 07:36:43;;;;;;;;;10.25;7.50;;;;;32.94;44.28;101545.31;4983595;28;45547;-84
2021/09/16 07:39:10;;;;;;;;;8.75;7.25;;;;;35.16;41.40;101554.16;4985322;28;45758;-85
2021/09/16 07:41:36;;;;;;;;;11.00;9.50;;;;;37.05;38.50;101554.78;4980905;28;45877;-81
2021/09/16 07:44:01;;;;;;;;;8.75;7.25;;;;;38.76;34.90;101553.81;4982477;28;46873;-76
2021/09/16 07:46:27;;;;;;;;;7.00;7.00;;;;;40.06;29.46;101562.19;4981905;28;45745;-79
2021/09/16 07:48:53;;;;;;;;;10.00;6.25;;;;;41.06;32.65;101554.38;4980453;28;50361;-77
2021/09/16 07:51:18;;;;;;;;;9.25;7.00;;;;;42.12;28.64;101563.41;4966747;28;45640;-78
2021/09/16 07:53:43;;;;;;;;;7.50;6.75;;;;;42.92;29.45;101569.22;4984136;28;45509;-80
2021/09/16 07:56:09;;;;;;;;;7.75;6.00;;;;;43.88;27.84;101572.38;4980529;28;45604;-83
2021/09/16 07:58:35;;;;;;;;;5.00;3.50;;;;;44.73;25.17;101584.06;4985547;28;45394;-82
2021/09/16 08:01:00;;;;;;;;;6.00;3.25;;;;;45.33;24.93;101581.84;4981249;28;45543;-79
2021/09/16 08:03:26;;;;;;;;;2.25;2.00;;;;;45.18;15.76;101585.50;4980587;28;45359;-81
2021/09/16 08:05:51;;;;;;;;;3.50;3.00;;;;;44.32;23.17;101591.84;4986319;28;45947;-77
2021/09/16 08:08:17;;;;;;;;;1.25;1.25;;;;;44.81;17.92;101586.69;4978582;28;45852;-76
2021/09/16 08:10:42;;;;;;;;;1.00;1.00;;;;;45.00;22.27;101582.31;4975758;28;45840;-77
2021/09/16 08:13:07;;;;;;;;;4.00;2.00;;;;;45.17;21.04;101576.31;4975826;28;45559;-77
2021/09/16 08:15:33;;;;;;;;;2.75;1.50;;;;;45.19;18.02;101582.34;4975969;28;47347;-79
2021/09/16 08:17:59;;;;;;;;;2.50;1.25;;;;;45.49;21.11;101584.53;4981307;28;45460;-77
2021/09/16 08:20:25;;;;;;;;;2.00;1.00;;;;;46.24;20.43;101582.34;4976760;28;45925;-83
2021/09/16 08:22:51;;;;;;;;;2.00;1.00;;;;;46.98;16.72;101573.50;4977582;28;46659;-82
2021/09/16 08:25:17;;;;;;;;;1.00;0.00;;;;;47.16;18.65;101573.75;4966481;28;45575;-79
2021/09/16 08:27:44;;;;;;;;;0.00;0.00;;;;;47.46;19.39;101562.56;4976105;28;45933;-80
2021/09/16 08:30:11;;;;;;;;;0.00;0.00;;;;;48.37;19.22;101570.59;4972715;28;45567;-85
2021/09/16 08:32:37;;;;;;;;;1.25;1.00;;;;;48.44;15.75;101565.84;4985260;28;46389;-93
2021/09/16 08:35:05;;;;;;;;;0.00;0.00;;;;;47.89;16.93;101568.59;4967578;28;45428;-83
2021/09/16 08:37:30;;;;;;;;;0.25;0.00;;;;;47.99;17.73;101572.69;4976087;28;45480;-88
2021/09/16 08:39:56;;;;;;;;;0.75;0.75;;;;;48.52;17.25;101577.09;4977042;28;45550;-83
2021/09/16 08:42:26;;;;;;;;;5.25;1.00;;;;;48.78;17.17;101578.91;4971594;28;45858;-80
2021/09/16 08:44:53;;;;;;;;;1.75;1.75;;;;;49.25;16.82;101579.91;4982516;28;45550;-81
2021/09/16 08:47:20;;;;;;;;;0.25;0.25;;;;;49.11;16.33;101580.66;4977205;28;45595;-80
2021/09/16 08:49:46;;;;;;;;;1.00;1.00;;;;;48.91;16.07;101574.53;4976522;28;45987;-79
2021/09/16 08:52:12;;;;;;;;;0.50;0.50;;;;;49.47;16.48;101569.59;4977588;28;46683;-85
2021/09/16 08:54:40;;;;;;;;;1.25;0.00;;;;;49.08;14.84;101579.44;4976915;28;45448;-84
2021/09/16 08:57:08;;;;;;;;;1.50;1.50;;;;;48.67;12.50;101578.84;4977594;28;45846;-87
2021/09/16 08:59:35;;;;;;;;;0.25;0.25;;;;;48.68;12.70;101574.03;4979048;28;45839;-86
2021/09/16 09:02:00;;;;;;;;;0.00;0.00;;;;;48.88;15.55;101578.13;4979101;28;46223;-83
2021/09/16 09:04:26;;;;;;;;;0.00;0.00;;;;;49.16;13.89;101579.47;4957715;28;50128;-78
2021/09/16 09:07:02;;;;;;;;;1.00;0.00;;;;;48.64;14.95;101576.81;4975690;28;45896;-81
2021/09/16 09:09:27;;;;;;;;;0.00;0.00;;;;;48.95;14.50;101586.63;4974329;28;45945;-83
2021/09/16 09:12:14;;;;;;;;;0.00;0.00;;;;;48.78;14.41;101587.31;4983177;28;46644;-82
2021/09/16 09:14:42;;;;;;;;;0.00;0.00;;;;;48.88;15.37;101590.16;4980926;28;46165;-87
2021/09/16 09:17:22;;;;;;;;;0.00;0.00;;;;;49.54;15.17;101582.84;4971518;28;45475;-80
2021/09/16 09:19:50;;;;;;;;;0.00;0.00;;;;;49.81;14.62;101588.94;4978598;28;45461;-82
2021/09/16 09:22:17;;;;;;;;;0.00;0.00;;;;;49.48;12.36;101588.81;4976191;28;45756;-82
2021/09/16 09:24:45;;;;;;;;;0.75;0.75;;;;;48.48;10.97;101593.91;4976620;28;45871;-79
2021/09/16 09:27:24;;;;;;;;;0.00;0.00;;;;;46.91;14.59;101587.41;4977602;28;45638;-81
2021/09/16 09:30:16;;;;;;;;;0.00;0.00;;;;;46.85;15.10;101589.72;4978902;28;45507;-79
2021/09/16 09:32:47;;;;;;;;;0.75;0.00;;;;;47.12;14.40;101575.72;4979048;28;45468;-81
2021/09/16 09:35:43;;;;;;;;;2.50;1.00;;;;;46.93;15.20;101576.63;4977546;28;45508;-79
2021/09/16 09:38:19;;;;;;;;;0.00;0.00;;;;;47.06;15.57;101580.81;4965988;28;45571;-80
2021/09/16 09:40:48;;;;;;;;;1.75;1.25;;;;;47.03;15.70;101578.75;4979601;28;45878;-84
2021/09/16 09:43:36;;;;;;;;;0.50;0.50;;;;;47.07;15.78;101578.81;4970316;28;46346;-79
2021/09/16 09:46:07;;;;;;;;;0.50;0.50;;;;;47.58;16.43;101589.44;4975161;28;46145;-79
2021/09/16 09:48:36;;;;;;;;;1.00;1.00;;;;;47.76;15.71;101582.06;4968808;28;46124;-81
2021/09/16 09:51:04;;;;;;;;;1.00;1.00;;;;;47.49;16.12;101595.38;4971369;28;45929;-79
2021/09/16 09:53:35;;;;;;;;;2.25;1.00;;;;;46.70;15.39;101590.69;4977698;28;46351;-78
2021/09/16 09:56:10;;;;;;;;;1.00;0.00;;;;;45.53;17.08;101593.81;4973132;28;46029;-82
2021/09/16 09:58:36;;;;;;;;;0.75;0.75;;;;;44.64;17.77;101579.50;4973683;28;46351;-80
2021/09/16 10:01:28;;;;;;;;;1.00;1.00;;;;;43.14;18.66;101579.00;4967230;28;45643;-80
2021/09/16 10:03:54;;;;;;;;;0.25;0.25;;;;;41.94;19.75;101574.72;4972467;28;45565;-79
2021/09/16 10:06:19;;;;;;;;;0.75;0.75;;;;;41.13;20.11;101568.53;4966433;28;45520;-80
2021/09/16 10:09:09;;;;;;;;;1.00;1.00;;;;;40.33;20.42;101568.44;4984317;28;45587;-85
2021/09/16 10:11:48;;;;;;;;;0.00;0.00;;;;;39.98;21.42;101577.63;4983704;28;45759;-80
2021/09/16 10:14:15;;;;;;;;;0.00;0.00;;;;;39.73;21.28;101571.00;4981044;28;45517;-78
2021/09/16 10:16:41;;;;;;;;;0.75;0.75;;;;;38.96;19.66;101569.81;4978089;28;45551;-81
2021/09/16 10:19:07;;;;;;;;;0.00;0.00;;;;;37.67;21.33;101568.81;4984970;28;45539;-79
2021/09/16 10:21:34;;;;;;;;;1.00;1.00;;;;;37.22;22.39;101568.72;4989279;28;45819;-80
2021/09/16 10:24:00;;;;;;;;;1.00;0.00;;;;;36.87;23.26;101562.00;4982469;28;46707;-79
2021/09/16 10:26:48;;;;;;;;;2.50;1.00;;;;;36.84;22.77;101557.94;4985468;28;45749;-79
2021/09/16 10:29:26;;;;;;;;;3.75;2.00;;;;;36.43;23.49;101564.25;4981914;28;45747;-79
2021/09/16 10:32:12;;;;;;;;;1.50;1.00;;;;;35.71;24.74;101557.22;4936931;28;1221404;-78
2021/09/16 10:34:46;;;;;;;;;2.00;1.00;;;;;35.35;24.66;101556.09;4967441;28;49495;-77
2021/09/16 10:37:16;;;;;;;;;2.00;2.00;;;;;35.04;24.13;101559.22;4976127;28;45761;-79
2021/09/16 10:39:44;;;;;;;;;0.00;0.00;;;;;34.87;25.96;101549.56;4976290;28;45651;-78
2021/09/16 10:42:10;;;;;;;;;0.00;0.00;;;;;35.03;25.84;101552.09;4976872;28;45747;-79
2021/09/16 10:44:38;;;;;;;;;2.00;2.00;;;;;34.97;24.72;101554.13;4979462;28;45509;-79
2021/09/16 10:47:16;;;;;;;;;1.00;1.00;;;;;35.09;26.08;101545.44;4978317;28;45564;-78
2021/09/16 10:49:42;;;;;;;;;0.75;0.75;;;;;35.38;25.98;101542.56;4981496;28;45579;-76
2021/09/16 10:52:11;;;;;;;;;1.75;1.75;;;;;35.40;23.90;101542.28;4983843;28;45600;-78
2021/09/16 10:54:45;;;;;;;;;1.00;1.00;;;;;35.10;25.03;101538.88;4981443;28;46141;-77
2021/09/16 10:57:16;;;;;;;;;0.50;0.00;;;;;34.68;23.85;101540.47;4982886;28;45538;-78
2021/09/16 10:59:48;;;;;;;;;1.75;1.75;;;;;34.51;25.72;101545.56;4980333;28;46375;-78
2021/09/16 11:02:15;;;;;;;;;7.00;5.00;;;;;34.77;24.25;101537.88;4976867;28;45519;-78
2021/09/16 11:05:14;;;;;;;;;2.50;1.25;;;;;34.77;26.48;101540.63;4982850;28;46665;-77
2021/09/16 11:07:43;;;;;;;;;0.25;0.25;;;;;34.96;27.32;101543.41;4978113;28;45505;-77
2021/09/16 11:13:12;;;;;;;;;1.25;1.25;;;;;35.24;24.88;101542.50;4975219;28;45575;-77
2021/09/16 11:15:39;;;;;;;;;3.75;3.50;;;;;34.62;25.40;101542.47;4973493;28;46062;-77
2021/09/16 11:18:07;;;;;;;;;2.00;2.00;;;;;34.75;25.81;101543.69;4978224;28;45558;-75